Time;durP1;ratioP1;P1;durP2;ratioP2;P2;SDS_P1;SDS_P2;PMS_P1;PMS_P2;Temp;Humidity;BMP_temperature;BMP_pressure;BME280_temperature;BME280_humidity;BME280_pressure;Samples;Min_cycle;Max_cycle;Signal;HPM_P1;HPM_P2
2024/01/23 00:00:38;;;;;;;6.60;2.03;;;17.60;65.60;;;;;;5057003;28;20513;-28
2024/01/23 00:03:05;;;;;;;5.07;1.95;;;17.90;51.20;;;;;;5053053;28;20074;-36
2024/01/23 00:05:31;;;;;;;3.83;1.63;;;17.00;65.40;;;;;;5053579;28;20041;-36
2024/01/23 00:07:59;;;;;;;4.60;1.58;;;16.90;62.00;;;;;;5053451;28;20080;-35
2024/01/23 00:10:27;;;;;;;6.40;1.77;;;;;;;;;;5053277;28;20415;-33
2024/01/23 00:12:53;;;;;;;7.13;2.00;;;17.80;65.70;;;;;;5053440;28;20053;-35
2024/01/23 00:15:20;;;;;;;6.10;1.75;;;16.50;65.10;;;;;;5053711;28;20190;-28
2024/01/23 00:17:47;;;;;;;6.35;1.88;;;17.50;48.60;;;;;;5073155;28;20474;-35
2024/01/23 00:20:14;;;;;;;6.40;1.83;;;15.90;64.60;;;;;;5073125;28;20555;-33
2024/01/23 00:22:41;;;;;;;4.47;2.03;;;;;;;;;;5072931;28;20080;-36
2024/01/23 00:25:09;;;;;;;4.70;1.70;;;17.10;44.50;;;;;;5073282;28;20093;-35
2024/01/23 00:27:36;;;;;;;4.32;1.70;;;;;;;;;;5072991;28;20088;-34
2024/01/23 00:30:04;;;;;;;4.68;1.75;;;17.20;44.60;;;;;;5073116;28;20048;-32
2024/01/23 00:32:31;;;;;;;6.53;1.90;;;;;;;;;;5067713;28;20565;-34
2024/01/23 00:34:58;;;;;;;4.60;1.90;;;17.10;65.80;;;;;;5052940;28;20127;-34
2024/01/23 00:37:25;;;;;;;5.63;1.90;;;;;;;;;;5065102;28;20053;-32
2024/01/23 00:39:54;;;;;;;5.03;1.80;;;17.90;59.90;;;;;;5072893;28;20053;-35
2024/01/23 00:42:22;;;;;;;4.65;1.80;;;17.40;66.00;;;;;;5072454;28;20131;-37
2024/01/23 00:44:49;;;;;;;3.63;1.60;;;17.30;65.50;;;;;;5072673;28;20091;-28
2024/01/23 00:47:16;;;;;;;4.65;1.70;;;16.70;60.50;;;;;;5072791;28;20405;-28
2024/01/23 00:49:43;;;;;;;2.88;1.40;;;17.30;65.90;;;;;;5061503;28;20048;-28
2024/01/23 00:52:10;;;;;;;4.82;1.60;;;;;;;;;;5052325;28;20093;-33
2024/01/23 00:54:37;;;;;;;3.75;1.70;;;16.60;65.20;;;;;;5052698;28;20080;-28
2024/01/23 00:57:05;;;;;;;4.57;1.58;;;17.30;65.90;;;;;;5052769;28;20049;-33
2024/01/23 00:59:33;;;;;;;4.88;1.55;;;16.80;65.60;;;;;;5052468;28;20067;-34
2024/01/23 01:02:00;;;;;;;4.68;1.80;;;15.70;64.60;;;;;;5052087;28;20045;-37
2024/01/23 01:04:26;;;;;;;4.05;1.50;;;17.00;52.70;;;;;;5052204;28;20088;-29
2024/01/23 01:06:53;;;;;;;3.70;1.67;;;17.00;65.80;;;;;;5071083;28;20080;-35
2024/01/23 01:09:20;;;;;;;4.32;1.80;;;;;;;;;;5072162;28;20488;-32
2024/01/23 01:11:47;;;;;;;6.00;1.80;;;16.70;65.20;;;;;;5072242;28;20072;-28
2024/01/23 01:14:14;;;;;;;5.13;1.90;;;16.00;65.30;;;;;;5071331;28;20102;-38
2024/01/23 01:16:42;;;;;;;6.07;2.30;;;17.00;44.30;;;;;;5071999;28;20327;-35
2024/01/23 01:19:09;;;;;;;5.15;2.00;;;15.70;64.70;;;;;;5072024;28;20048;-35
2024/01/23 01:21:36;;;;;;;4.82;1.80;;;17.40;66.10;;;;;;5066051;28;20080;-33
2024/01/23 01:24:03;;;;;;;4.53;1.83;;;;;;;;;;5062236;28;20127;-31
2024/01/23 01:26:30;;;;;;;5.93;1.73;;;16.40;65.50;;;;;;5071824;28;20087;-35
2024/01/23 01:28:57;;;;;;;4.75;1.70;;;;;;;;;;5071959;28;20080;-28
2024/01/23 01:31:24;;;;;;;7.43;2.10;;;;;;;;;;5071640;28;20497;-28
2024/01/23 01:33:52;;;;;;;6.72;1.98;;;16.90;44.20;;;;;;5071870;28;20084;-33
2024/01/23 01:36:19;;;;;;;4.90;1.85;;;;;;;;;;5071122;28;20505;-33
2024/01/23 01:38:46;;;;;;;5.95;2.13;;;16.20;65.40;;;;;;5066104;28;20052;-34
2024/01/23 01:41:13;;;;;;;3.85;1.48;;;;;;;;;;5071513;28;20106;-31
2024/01/23 01:43:40;;;;;;;4.20;1.90;;;16.80;65.60;;;;;;5071818;28;20114;-28
2024/01/23 01:46:12;;;;;;;4.43;2.17;;;15.70;65.10;;;;;;5071691;28;20079;-28
2024/01/23 01:48:39;;;;;;;5.35;1.70;;;17.60;65.80;;;;;;5071684;28;20048;-35
2024/01/23 01:51:07;;;;;;;3.90;1.77;;;16.90;44.20;;;;;;5071600;28;20084;-33
2024/01/23 01:53:34;;;;;;;6.32;2.30;;;;;;;;;;5071727;28;20045;-31
2024/01/23 01:56:01;;;;;;;5.93;1.70;;;16.40;65.60;;;;;;5053394;28;20080;-37
2024/01/23 01:58:29;;;;;;;5.63;1.85;;;16.80;44.20;;;;;;5051332;28;20052;-31
2024/01/23 02:00:56;;;;;;;5.97;1.88;;;;;;;;;;5051308;28;20107;-32
2024/01/23 02:03:23;;;;;;;4.32;1.98;;;17.90;58.10;;;;;;5051808;28;20088;-33
2024/01/23 02:05:50;;;;;;;5.07;1.90;;;17.10;66.00;;;;;;5055557;28;20508;-34
2024/01/23 02:08:18;;;;;;;4.22;1.50;;;16.80;44.20;;;;;;5051572;28;20041;-34
2024/01/23 02:10:45;;;;;;;4.25;1.38;;;17.60;66.30;;;;;;5051204;28;20081;-34
2024/01/23 02:13:12;;;;;;;4.05;1.80;;;;;;;;;;5052648;28;20079;-34
2024/01/23 02:15:39;;;;;;;4.78;1.80;;;;;;;;;;5071303;28;20080;-29
2024/01/23 02:18:06;;;;;;;4.45;1.83;;;16.10;65.50;;;;;;5071783;28;20084;-28
2024/01/23 02:20:33;;;;;;;4.63;1.67;;;;;;;;;;5071069;28;20059;-35
2024/01/23 02:22:59;;;;;;;5.90;2.10;;;16.90;65.40;;;;;;5071246;28;20101;-36
2024/01/23 02:25:27;;;;;;;7.57;2.10;;;16.80;44.20;;;;;;5072164;28;20113;-28
2024/01/23 02:27:55;;;;;;;6.60;1.90;;;;;;;;;;5070334;28;20084;-27
2024/01/23 02:30:21;;;;;;;4.80;1.80;;;16.70;65.30;;;;;;5075363;28;20553;-28
2024/01/23 02:32:48;;;;;;;5.25;1.75;;;16.90;65.80;;;;;;5074955;28;20102;-28
2024/01/23 02:35:15;;;;;;;6.35;2.00;;;;;;;;;;5074592;28;20053;-33
2024/01/23 02:37:42;;;;;;;5.85;1.80;;;16.40;65.30;;;;;;5074557;28;20539;-28
2024/01/23 02:40:09;;;;;;;6.13;1.92;;;17.20;58.70;;;;;;5074999;28;20189;-28
2024/01/23 02:42:37;;;;;;;5.85;2.22;;;17.10;65.40;;;;;;5075069;28;20106;-28
2024/01/23 02:45:05;;;;;;;6.53;1.77;;;;;;;;;;5074721;28;20509;-27
2024/01/23 02:47:32;;;;;;;7.50;1.70;;;;;;;;;;5075036;28;20474;-28
2024/01/23 02:49:59;;;;;;;3.78;1.60;;;16.00;64.40;;;;;;5075038;28;20072;-27
2024/01/23 02:52:27;;;;;;;5.25;1.98;;;17.60;55.10;;;;;;5074003;28;20480;-28
2024/01/23 02:54:54;;;;;;;7.55;1.92;;;17.30;65.60;;;;;;5074749;28;20056;-34
2024/01/23 02:57:21;;;;;;;5.63;1.92;;;;;;;;;;5074587;28;20041;-36
2024/01/23 02:59:49;;;;;;;7.13;2.13;;;16.70;57.70;;;;;;5074614;28;20091;-38
2024/01/23 03:02:16;;;;;;;5.10;1.80;;;17.40;58.00;;;;;;5074576;28;20101;-28
2024/01/23 03:04:43;;;;;;;5.10;1.98;;;16.70;64.80;;;;;;5074804;28;20052;-33
2024/01/23 03:07:09;;;;;;;5.10;1.90;;;16.60;50.10;;;;;;5074490;28;20080;-28
2024/01/23 03:09:36;;;;;;;6.00;2.30;;;17.30;55.10;;;;;;5074356;28;20515;-28
2024/01/23 03:12:04;;;;;;;6.75;2.03;;;17.40;65.20;;;;;;5074088;28;20102;-37
2024/01/23 03:14:31;;;;;;;4.70;1.73;;;17.10;65.30;;;;;;5074643;28;20132;-34
2024/01/23 03:17:03;;;;;;;4.88;1.58;;;16.90;43.80;;;;;;5074373;28;20076;-32
2024/01/23 03:19:30;;;;;;;4.95;1.80;;;;;;;;;;5074444;28;20048;-32
2024/01/23 03:21:57;;;;;;;5.18;1.80;;;16.90;65.10;;;;;;5073828;28;20099;-34
2024/01/23 03:24:24;;;;;;;4.50;1.75;;;17.30;48.10;;;;;;5073011;28;20393;-34
2024/01/23 03:26:50;;;;;;;7.05;2.08;;;16.80;48.10;;;;;;5058410;28;20076;-35
2024/01/23 03:29:17;;;;;;;5.60;2.20;;;16.90;64.90;;;;;;5066624;28;20075;-31
2024/01/23 03:31:44;;;;;;;8.05;2.22;;;17.20;65.40;;;;;;5074118;28;20114;-28
2024/01/23 03:34:12;;;;;;;6.22;2.05;;;16.80;46.20;;;;;;5074023;28;20083;-30
2024/01/23 03:36:39;;;;;;;6.70;2.42;;;15.90;48.60;;;;;;5072862;28;20405;-34
2024/01/23 03:39:06;;;;;;;4.78;1.80;;;16.80;64.70;;;;;;5073692;28;20052;-28
2024/01/23 03:41:35;;;;;;;5.90;1.92;;;;;;;;;;5067849;28;20190;-28
2024/01/23 03:44:03;;;;;;;6.57;2.00;;;17.20;65.00;;;;;;5061403;28;20049;-28
2024/01/23 03:46:29;;;;;;;7.30;2.53;;;16.70;60.50;;;;;;5053939;28;20108;-29
2024/01/23 03:48:56;;;;;;;4.88;2.00;;;16.00;64.70;;;;;;5053443;28;20410;-28
2024/01/23 03:51:24;;;;;;;6.22;2.10;;;17.00;43.70;;;;;;5053713;28;20056;-32
2024/01/23 03:53:51;;;;;;;4.97;1.90;;;;;;;;;;5053922;28;20080;-33
2024/01/23 03:56:18;;;;;;;6.72;2.00;;;16.90;64.90;;;;;;5053613;28;20045;-28
2024/01/23 03:58:46;;;;;;;7.85;2.03;;;;;;;;;;5064816;28;20131;-28
2024/01/23 04:01:12;;;;;;;6.03;1.88;;;17.30;65.20;;;;;;5073201;28;20134;-28
2024/01/23 04:03:39;;;;;;;6.22;2.00;;;;;;;;;;5073444;28;20403;-31
2024/01/23 04:06:07;;;;;;;6.15;2.13;;;17.10;64.50;;;;;;5073764;28;20068;-36
2024/01/23 04:08:35;;;;;;;4.10;1.80;;;17.20;43.60;;;;;;5073539;28;20088;-32
2024/01/23 04:11:02;;;;;;;5.55;2.17;;;;;;;;;;5073117;28;20052;-31
2024/01/23 04:13:29;;;;;;;6.20;2.13;;;16.90;64.40;;;;;;5073102;28;20059;-37
2024/01/23 04:15:56;;;;;;;5.38;2.13;;;;;;;;;;5073286;28;20097;-33
2024/01/23 04:18:23;;;;;;;5.93;1.95;;;;;;;;;;5073097;28;20087;-28
2024/01/23 04:20:50;;;;;;;6.75;2.13;;;;;;;;;;5073487;28;20083;-33
2024/01/23 04:23:17;;;;;;;4.82;1.85;;;;;;;;;;5072836;28;20114;-32
2024/01/23 04:25:45;;;;;;;5.00;1.95;;;17.30;43.50;;;;;;5073175;28;20467;-34
2024/01/23 04:28:12;;;;;;;5.20;1.80;;;;;;;;;;5072623;28;20098;-31
2024/01/23 04:30:39;;;;;;;4.70;1.90;;;17.20;64.60;;;;;;5072943;28;20094;-28
2024/01/23 04:33:06;;;;;;;6.40;2.00;;;18.40;65.20;;;;;;5072850;28;20663;-28
2024/01/23 04:35:34;;;;;;;5.25;2.20;;;;;;;;;;5072773;28;20052;-28
2024/01/23 04:38:01;;;;;;;5.00;2.30;;;17.80;45.70;;;;;;5072404;28;20044;-30
2024/01/23 04:40:27;;;;;;;6.53;2.72;;;17.40;64.20;;;;;;5072562;28;20080;-27
2024/01/23 04:42:55;;;;;;;5.32;2.00;;;17.40;60.70;;;;;;5071641;28;20076;-34
2024/01/23 04:45:22;;;;;;;6.15;1.92;;;17.60;64.20;;;;;;5068759;28;20076;-34
2024/01/23 04:47:49;;;;;;;6.85;2.42;;;;;;;;;;5072688;28;20524;-30
2024/01/23 04:50:16;;;;;;;5.13;1.80;;;17.30;64.30;;;;;;5072724;28;20080;-28
2024/01/23 04:52:43;;;;;;;5.88;2.00;;;;;;;;;;5072364;28;20083;-31
2024/01/23 04:55:10;;;;;;;5.43;2.08;;;;;;;;;;5072563;28;20049;-33
2024/01/23 04:57:37;;;;;;;5.78;2.30;;;;;;;;;;5072242;28;20045;-32
2024/01/23 05:00:07;;;;;;;5.50;1.98;;;17.80;64.00;;;;;;5072213;28;20074;-37
2024/01/23 05:02:35;;;;;;;6.53;1.73;;;17.40;60.70;;;;;;5072344;28;20048;-28
2024/01/23 05:05:03;;;;;;;7.32;2.45;;;17.50;46.50;;;;;;5072545;28;20044;-28
2024/01/23 05:07:30;;;;;;;6.10;2.05;;;;;;;;;;5072220;28;20049;-29
2024/01/23 05:09:56;;;;;;;5.57;2.00;;;17.80;63.80;;;;;;5057393;28;20101;-28
2024/01/23 05:12:24;;;;;;;5.55;2.05;;;;;;;;;;5052020;28;20103;-32
2024/01/23 05:14:50;;;;;;;5.00;1.80;;;19.00;50.30;;;;;;5052484;28;20086;-34
2024/01/23 05:17:18;;;;;;;5.97;1.95;;;17.90;64.10;;;;;;5064876;28;20044;-38
2024/01/23 05:19:45;;;;;;;6.43;2.30;;;17.30;63.80;;;;;;5072198;28;20049;-37
2024/01/23 05:22:12;;;;;;;6.20;2.00;;;17.80;45.40;;;;;;5071768;28;20080;-33
2024/01/23 05:24:39;;;;;;;8.98;2.30;;;18.30;63.80;;;;;;5071947;28;20098;-36
2024/01/23 05:27:06;;;;;;;6.93;2.40;;;18.40;64.00;;;;;;5071822;28;20041;-35
2024/01/23 05:29:32;;;;;;;5.40;2.20;;;17.10;62.80;;;;;;5072014;28;20052;-28
2024/01/23 05:31:59;;;;;;;5.95;2.15;;;;;;;;;;5071076;28;20091;-36
2024/01/23 05:34:28;;;;;;;6.00;2.42;;;18.20;43.40;;;;;;5057478;28;20478;-30
2024/01/23 05:36:55;;;;;;;5.47;2.05;;;;;;;;;;5071218;28;20558;-34
2024/01/23 05:39:21;;;;;;;5.70;2.22;;;17.50;63.20;;;;;;5071808;28;20098;-37
2024/01/23 05:41:48;;;;;;;4.65;1.83;;;;;;;;;;5071577;28;20504;-32
2024/01/23 05:44:15;;;;;;;4.55;1.98;;;17.80;51.60;;;;;;5071776;28;20057;-28
2024/01/23 05:46:42;;;;;;;5.25;2.10;;;18.50;63.80;;;;;;5071767;28;20090;-28
2024/01/23 05:49:09;;;;;;;5.57;2.00;;;;;;;;;;5067389;28;20130;-30
2024/01/23 05:51:37;;;;;;;7.45;2.28;;;18.00;63.80;;;;;;5051496;28;20057;-34
2024/01/23 05:54:04;;;;;;;5.13;1.90;;;18.10;63.50;;;;;;5051607;28;20052;-35
2024/01/23 05:56:31;;;;;;;8.38;2.30;;;;;;;;;;5051255;28;20568;-34
2024/01/23 05:59:00;;;;;;;5.75;2.15;;;18.40;63.60;;;;;;5051573;28;20488;-37
2024/01/23 06:01:27;;;;;;;4.07;1.92;;;;;;;;;;5051194;28;20056;-34
2024/01/23 06:03:54;;;;;;;6.45;2.15;;;17.90;63.50;;;;;;5051390;28;20045;-28
2024/01/23 06:06:21;;;;;;;7.45;2.33;;;;;;;;;;5052648;28;20095;-33
2024/01/23 06:08:50;;;;;;;5.72;2.53;;;17.20;62.80;;;;;;5051333;28;20052;-28
2024/01/23 06:11:16;;;;;;;6.50;2.60;;;18.10;63.40;;;;;;5051591;28;20076;-35
2024/01/23 06:13:43;;;;;;;6.72;1.98;;;17.70;46.60;;;;;;5051578;28;20082;-36
2024/01/23 06:16:10;;;;;;;5.43;2.30;;;;;;;;;;5051301;28;20051;-28
2024/01/23 06:18:38;;;;;;;6.18;2.20;;;;;;;;;;5051301;28;20136;-32
2024/01/23 06:21:05;;;;;;;6.15;2.42;;;20.80;44.10;;;;;;5051494;28;20472;-29
2024/01/23 06:23:32;;;;;;;6.40;2.30;;;;;;;;;;5069381;28;20579;-32
2024/01/23 06:26:00;;;;;;;6.90;2.40;;;18.30;42.60;;;;;;5071547;28;20129;-28
2024/01/23 06:28:27;;;;;;;6.47;2.10;;;17.80;63.30;;;;;;5071060;28;20129;-28
2024/01/23 06:30:54;;;;;;;6.20;2.38;;;;;;;;;;5071385;28;20045;-32
2024/01/23 06:33:21;;;;;;;6.90;2.35;;;17.90;63.30;;;;;;5071185;28;20529;-28
2024/01/23 06:35:48;;;;;;;5.05;2.03;;;;;;;;;;5071205;28;20048;-27
2024/01/23 06:38:15;;;;;;;7.13;2.40;;;17.30;62.90;;;;;;5069673;28;20141;-28
2024/01/23 06:40:42;;;;;;;5.82;2.30;;;;;;;;;;5064410;28;20505;-36
2024/01/23 06:43:10;;;;;;;6.22;2.28;;;18.50;59.60;;;;;;5071021;28;20083;-36
2024/01/23 06:45:37;;;;;;;5.75;2.30;;;18.20;58.90;;;;;;5071221;28;20084;-28
2024/01/23 06:48:04;;;;;;;6.72;2.80;;;18.40;42.60;;;;;;5071416;28;20076;-37
2024/01/23 06:50:32;;;;;;;5.28;2.30;;;;;;;;;;5071425;28;20088;-35
2024/01/23 06:52:59;;;;;;;4.75;2.17;;;;;;;;;;5070573;28;20566;-32
2024/01/23 06:55:25;;;;;;;6.55;2.40;;;18.40;63.50;;;;;;5069833;28;20076;-34
2024/01/23 06:57:52;;;;;;;6.10;2.10;;;17.60;62.70;;;;;;5071043;28;20466;-28
2024/01/23 07:00:21;;;;;;;6.03;2.42;;;18.40;42.60;;;;;;5071060;28;20562;-29
2024/01/23 07:02:47;;;;;;;7.38;2.70;;;19.10;63.80;;;;;;5070905;28;20127;-34
2024/01/23 07:05:14;;;;;;;5.68;2.28;;;18.30;63.10;;;;;;5071119;28;20056;-28
2024/01/23 07:07:42;;;;;;;6.57;2.45;;;18.90;45.10;;;;;;5071104;28;20129;-30
2024/01/23 07:10:10;;;;;;;6.13;2.47;;;18.50;42.50;;;;;;5071021;28;20052;-33
2024/01/23 07:12:36;;;;;;;7.85;2.60;;;18.50;63.20;;;;;;5070265;28;20080;-27
2024/01/23 07:15:04;;;;;;;7.45;2.42;;;18.80;43.50;;;;;;5074006;28;20080;-31
2024/01/23 07:17:32;;;;;;;7.47;2.22;;;18.90;63.60;;;;;;5054340;28;20107;-28
2024/01/23 07:20:00;;;;;;;6.70;2.50;;;18.80;63.20;;;;;;5073333;28;20048;-28
2024/01/23 07:22:27;;;;;;;7.38;2.40;;;;;;;;;;5074143;28;20059;-28
2024/01/23 07:24:54;;;;;;;4.95;1.90;;;18.60;55.50;;;;;;5074362;28;20135;-34
2024/01/23 07:27:21;;;;;;;6.85;2.50;;;17.50;62.20;;;;;;5074334;28;20044;-29
2024/01/23 07:29:48;;;;;;;7.10;2.22;;;;;;;;;;5072192;28;20517;-34
2024/01/23 07:32:14;;;;;;;6.82;2.25;;;17.40;62.70;;;;;;5057025;28;20076;-27
2024/01/23 07:34:42;;;;;;;5.85;2.53;;;18.50;63.30;;;;;;5054466;28;20122;-28
2024/01/23 07:37:09;;;;;;;4.45;2.35;;;18.90;63.20;;;;;;5064345;28;20446;-28
2024/01/23 07:39:36;;;;;;;5.00;2.22;;;;;;;;;;5074094;28;20493;-35
2024/01/23 07:42:04;;;;;;;6.68;2.30;;;18.90;63.70;;;;;;5073987;28;20409;-34
2024/01/23 07:44:32;;;;;;;7.18;2.45;;;19.30;61.70;;;;;;5069620;28;20094;-28
2024/01/23 07:46:59;;;;;;;7.57;2.72;;;19.00;63.40;;;;;;5053646;28;20482;-28
2024/01/23 07:49:26;;;;;;;7.32;2.90;;;;;;;;;;5054406;28;20129;-34
2024/01/23 07:51:55;;;;;;;7.15;2.38;;;18.70;55.80;;;;;;5053757;28;20049;-28
2024/01/23 07:54:21;;;;;;;8.65;2.60;;;18.50;63.10;;;;;;5053954;28;20582;-28
2024/01/23 07:56:50;;;;;;;8.90;2.83;;;;;;;;;;5053387;28;20052;-33
2024/01/23 07:59:17;;;;;;;7.03;2.58;;;17.80;48.40;;;;;;5053899;28;20061;-35
2024/01/23 08:01:43;;;;;;;6.97;2.40;;;18.70;63.20;;;;;;5054845;28;20076;-36
2024/01/23 08:04:11;;;;;;;7.28;2.50;;;18.50;63.10;;;;;;5054038;28;20085;-36
2024/01/23 08:06:37;;;;;;;9.82;2.70;;;19.40;63.40;;;;;;5053764;28;20068;-28
2024/01/23 08:09:06;;;;;;;5.80;2.50;;;19.20;63.30;;;;;;5053824;28;20402;-34
2024/01/23 08:11:32;;;;;;;8.27;2.47;;;18.90;60.50;;;;;;5053215;28;20071;-37
2024/01/23 08:13:59;;;;;;;8.18;2.83;;;19.50;50.90;;;;;;5059360;28;20045;-34
2024/01/23 08:16:26;;;;;;;9.32;2.92;;;19.40;63.10;;;;;;5063586;28;20049;-35
2024/01/23 08:18:54;;;;;;;7.57;2.45;;;;;;;;;;5058966;28;20047;-35
2024/01/23 08:21:21;;;;;;;7.80;2.50;;;19.20;62.50;;;;;;5066020;28;20226;-35
2024/01/23 08:23:47;;;;;;;5.43;2.15;;;19.60;55.50;;;;;;5068040;28;20088;-34
2024/01/23 08:26:16;;;;;;;6.57;2.45;;;19.50;62.80;;;;;;5065800;28;20073;-28
2024/01/23 08:28:42;;;;;;;8.15;2.63;;;19.30;62.10;;;;;;5060758;28;20090;-34
2024/01/23 08:31:09;;;;;;;6.63;2.38;;;;;;;;;;5072550;28;20102;-31
2024/01/23 08:33:39;;;;;;;7.95;2.60;;;;;;;;;;5072795;28;20048;-34
2024/01/23 08:36:06;;;;;;;7.07;2.70;;;17.90;41.10;;;;;;5053546;28;20041;-32
2024/01/23 08:38:33;;;;;;;10.05;2.70;;;19.90;62.40;;;;;;5072564;28;20076;-36
2024/01/23 08:40:59;;;;;;;7.07;2.33;;;20.10;62.20;;;;;;5072813;28;20083;-35
2024/01/23 08:43:27;;;;;;;9.50;2.92;;;19.80;57.60;;;;;;5072813;28;20109;-35
2024/01/23 08:45:54;;;;;;;9.75;3.17;;;19.80;57.50;;;;;;5069456;28;20515;-35
2024/01/23 08:48:24;;;;;;;7.32;2.53;;;;;;;;;;5073037;28;20083;-32
2024/01/23 08:50:52;;;;;;;7.35;2.72;;;;;;;;;;5072366;28;20048;-36
2024/01/23 08:53:19;;;;;;;8.18;2.58;;;19.70;62.40;;;;;;5072674;28;20052;-35
2024/01/23 08:55:47;;;;;;;7.57;2.75;;;;;;;;;;5072686;28;20080;-32
2024/01/23 08:58:16;;;;;;;8.75;2.40;;;19.70;62.00;;;;;;5072203;28;20507;-37
2024/01/23 09:00:44;;;;;;;9.02;2.65;;;21.10;63.10;;;;;;5072596;28;20084;-28
2024/01/23 09:03:12;;;;;;;8.50;2.78;;;;;;;;;;5072407;28;20049;-31
2024/01/23 09:05:39;;;;;;;6.60;2.60;;;;;;;;;;5065677;28;20045;-33
2024/01/23 09:08:06;;;;;;;7.65;2.50;;;20.00;62.00;;;;;;5061428;28;20044;-35
2024/01/23 09:10:33;;;;;;;7.68;2.55;;;21.10;54.70;;;;;;5061234;28;20048;-35
2024/01/23 09:13:00;;;;;;;5.90;2.17;;;20.20;48.50;;;;;;5061781;28;20084;-37
2024/01/23 09:15:26;;;;;;;8.05;2.92;;;20.40;62.30;;;;;;5061351;28;20087;-34
2024/01/23 09:17:55;;;;;;;7.18;2.83;;;19.80;59.00;;;;;;5059039;28;20072;-35
2024/01/23 09:20:21;;;;;;;8.55;3.65;;;20.30;60.50;;;;;;5061664;28;20048;-35
2024/01/23 09:22:50;;;;;;;8.68;2.53;;;20.40;55.10;;;;;;5062736;28;20129;-37
2024/01/23 09:25:18;;;;;;;7.40;2.80;;;20.10;48.20;;;;;;5061643;28;20068;-35
2024/01/23 09:27:45;;;;;;;7.43;2.70;;;20.90;62.90;;;;;;5061203;28;20068;-28
2024/01/23 09:30:13;;;;;;;8.88;2.70;;;19.50;59.10;;;;;;5060194;28;20077;-34
2024/01/23 09:32:40;;;;;;;7.93;2.35;;;20.00;61.40;;;;;;5061681;28;20090;-28
2024/01/23 09:35:09;;;;;;;6.03;2.60;;;20.20;62.50;;;;;;5060412;28;20048;-28
2024/01/23 09:37:36;;;;;;;7.55;2.45;;;;;;;;;;5057032;28;20402;-32
2024/01/23 09:40:03;;;;;;;9.20;2.97;;;20.60;62.30;;;;;;5061059;28;20075;-29
2024/01/23 09:42:30;;;;;;;6.30;2.70;;;;;;;;;;5062686;28;20090;-32
2024/01/23 09:44:58;;;;;;;7.22;2.53;;;20.10;62.20;;;;;;5060898;28;20072;-35
2024/01/23 09:47:24;;;;;;;6.70;2.47;;;20.00;61.70;;;;;;5061085;28;20110;-37
2024/01/23 09:49:52;;;;;;;9.93;2.60;;;20.20;62.20;;;;;;5068888;28;20098;-37
2024/01/23 09:52:20;;;;;;;6.30;2.60;;;21.10;62.60;;;;;;5071675;28;20048;-36
2024/01/23 09:54:47;;;;;;;6.30;2.30;;;20.30;62.00;;;;;;5065247;28;20067;-28
2024/01/23 09:57:14;;;;;;;5.68;2.40;;;;;;;;;;5061109;28;20073;-33
2024/01/23 09:59:41;;;;;;;9.68;2.88;;;21.00;62.60;;;;;;5060819;28;20036;-28
2024/01/23 10:02:08;;;;;;;7.63;2.35;;;20.80;62.00;;;;;;5061952;28;20064;-28
2024/01/23 10:04:35;;;;;;;7.57;2.70;;;20.30;62.00;;;;;;5061198;28;20045;-36
2024/01/23 10:07:06;;;;;;;7.45;2.45;;;20.90;62.40;;;;;;5063019;28;20098;-37
2024/01/23 10:09:34;;;;;;;6.20;2.67;;;20.50;42.30;;;;;;5051277;28;20045;-33
2024/01/23 10:12:01;;;;;;;7.45;2.60;;;;;;;;;;5051105;28;20073;-32
2024/01/23 10:14:27;;;;;;;6.30;2.58;;;20.70;61.90;;;;;;5050741;28;20083;-37
2024/01/23 10:16:54;;;;;;;7.90;3.08;;;20.80;61.60;;;;;;5051404;28;20045;-35
2024/01/23 10:19:21;;;;;;;6.13;2.30;;;20.30;53.50;;;;;;5051450;28;20076;-33
2024/01/23 10:21:48;;;;;;;5.70;2.30;;;20.50;61.50;;;;;;5060675;28;20468;-35
2024/01/23 10:24:15;;;;;;;7.40;2.65;;;;;;;;;;5060991;28;20080;-33
2024/01/23 10:26:45;;;;;;;7.40;2.88;;;21.50;61.90;;;;;;5060528;28;20098;-37
2024/01/23 10:29:13;;;;;;;8.27;2.78;;;20.90;61.90;;;;;;5058851;28;20044;-38
2024/01/23 10:31:40;;;;;;;7.47;2.33;;;;;;;;;;5059526;28;20140;-35
2024/01/23 10:34:10;;;;;;;7.75;2.95;;;20.50;42.10;;;;;;5061926;28;20076;-28
2024/01/23 10:36:37;;;;;;;8.27;2.75;;;20.50;44.60;;;;;;5058716;28;20077;-30
2024/01/23 10:39:04;;;;;;;7.50;2.42;;;20.40;50.00;;;;;;5061846;28;20080;-29
2024/01/23 10:41:31;;;;;;;7.38;2.60;;;20.30;55.50;;;;;;5060156;28;20095;-29
2024/01/23 10:43:59;;;;;;;7.65;2.42;;;19.30;54.20;;;;;;5060523;28;20052;-34
2024/01/23 10:46:26;;;;;;;8.65;2.83;;;20.90;55.10;;;;;;5054725;28;20049;-38
2024/01/23 10:48:52;;;;;;;7.63;3.08;;;20.20;61.70;;;;;;5055283;28;20137;-35
2024/01/23 10:51:20;;;;;;;7.15;2.58;;;20.50;42.50;;;;;;5055144;28;20081;-30
2024/01/23 10:53:53;;;;;;;6.65;2.22;;;20.50;61.50;;;;;;5054999;28;20174;-34
2024/01/23 10:56:21;;;;;;;8.35;2.63;;;;;;;;;;5054847;28;20160;-36
2024/01/23 10:58:47;;;;;;;7.05;2.70;;;21.20;62.80;;;;;;5055145;28;20077;-36
2024/01/23 11:01:15;;;;;;;6.35;2.42;;;20.20;42.60;;;;;;5055057;28;20123;-36
2024/01/23 11:03:42;;;;;;;6.93;2.50;;;20.10;50.00;;;;;;5062998;28;20076;-31
2024/01/23 11:06:17;;;;;;;5.50;2.30;;;19.90;62.20;;;;;;5074913;28;20076;-28
2024/01/23 11:08:46;;;;;;;7.90;2.90;;;19.90;45.20;;;;;;5074579;28;20098;-31
2024/01/23 11:11:16;;;;;;;7.20;2.40;;;20.80;43.20;;;;;;5074760;28;20506;-33
2024/01/23 11:13:43;;;;;;;6.53;2.45;;;20.30;49.60;;;;;;5074564;28;20084;-35
2024/01/23 11:16:10;;;;;;;7.80;2.80;;;19.80;62.00;;;;;;5074716;28;20095;-35
2024/01/23 11:18:38;;;;;;;6.28;2.55;;;19.80;54.40;;;;;;5074201;28;20076;-29
2024/01/23 11:21:15;;;;;;;6.13;2.42;;;19.70;54.30;;;;;;5074591;28;20076;-34
2024/01/23 11:23:42;;;;;;;8.18;3.00;;;20.60;63.10;;;;;;5074153;28;20519;-35
2024/01/23 11:26:15;;;;;;;6.07;2.42;;;20.10;54.60;;;;;;5074629;28;20098;-34
2024/01/23 11:28:42;;;;;;;7.90;3.05;;;20.60;62.80;;;;;;5074303;28;20047;-29
2024/01/23 11:31:10;;;;;;;9.07;3.00;;;19.40;62.10;;;;;;5074114;28;20072;-28
2024/01/23 11:33:38;;;;;;;9.25;2.67;;;19.60;62.30;;;;;;5074017;28;20052;-39
2024/01/23 11:36:11;;;;;;;7.35;2.78;;;19.30;62.50;;;;;;5074041;28;20189;-30
2024/01/23 11:38:42;;;;;;;7.32;2.67;;;19.30;50.50;;;;;;5074268;28;20049;-29
2024/01/23 11:41:22;;;;;;;8.98;2.70;;;19.60;42.70;;;;;;5073889;28;20425;-32
2024/01/23 11:43:49;;;;;;;8.57;3.10;;;19.20;62.70;;;;;;5074084;28;20063;-28
2024/01/23 11:46:18;;;;;;;8.00;2.78;;;19.30;62.60;;;;;;5073863;28;20052;-28
2024/01/23 11:48:47;;;;;;;11.38;3.67;;;19.50;42.80;;;;;;5074259;28;20076;-32
2024/01/23 11:51:14;;;;;;;8.27;2.63;;;18.90;62.40;;;;;;5065007;28;20052;-35
2024/01/23 11:53:41;;;;;;;9.48;2.97;;;19.70;62.90;;;;;;5055207;28;20056;-38
2024/01/23 11:56:08;;;;;;;7.03;2.90;;;19.30;53.90;;;;;;5062270;28;20075;-35
2024/01/23 11:58:35;;;;;;;7.03;2.55;;;19.10;60.50;;;;;;5063268;28;20125;-36
2024/01/23 12:01:02;;;;;;;7.88;2.80;;;;;;;;;;5064193;28;20094;-32
2024/01/23 12:03:29;;;;;;;6.50;2.80;;;18.80;62.60;;;;;;5064415;28;20097;-35
2024/01/23 12:05:57;;;;;;;8.70;2.72;;;19.20;42.80;;;;;;5062632;28;20041;-33
2024/01/23 12:08:25;;;;;;;6.95;2.80;;;;;;;;;;5062454;28;20052;-34
2024/01/23 12:10:52;;;;;;;7.53;2.47;;;;;;;;;;5064267;28;20055;-34
2024/01/23 12:13:21;;;;;;;7.80;2.90;;;19.00;62.60;;;;;;5062756;28;20052;-28
2024/01/23 12:15:48;;;;;;;10.73;3.20;;;18.50;48.20;;;;;;5073409;28;20079;-29
2024/01/23 12:18:15;;;;;;;8.23;2.63;;;18.90;63.00;;;;;;5073285;28;20094;-27
2024/01/23 12:20:43;;;;;;;10.80;3.08;;;18.90;63.00;;;;;;5073458;28;20715;-28
2024/01/23 12:23:11;;;;;;;8.10;2.40;;;19.00;43.00;;;;;;5073161;28;20049;-28
2024/01/23 12:25:38;;;;;;;9.15;2.90;;;;;;;;;;5073316;28;20048;-35
2024/01/23 12:28:05;;;;;;;8.52;2.72;;;18.90;63.40;;;;;;5073165;28;20169;-34
2024/01/23 12:30:32;;;;;;;10.55;3.28;;;18.80;62.90;;;;;;5073441;28;20048;-28
2024/01/23 12:32:59;;;;;;;10.02;3.22;;;;;;;;;;5073082;28;20056;-33
2024/01/23 12:35:26;;;;;;;7.18;2.83;;;18.40;63.00;;;;;;5073497;28;20052;-37
2024/01/23 12:37:52;;;;;;;6.82;2.85;;;19.00;63.50;;;;;;5072474;28;20083;-37
2024/01/23 12:40:21;;;;;;;7.70;3.40;;;18.40;56.50;;;;;;5072899;28;20053;-34
2024/01/23 12:42:48;;;;;;;7.63;3.35;;;19.00;63.70;;;;;;5072800;28;20102;-37
2024/01/23 12:45:16;;;;;;;8.07;2.40;;;18.50;55.70;;;;;;5073023;28;20051;-29
2024/01/23 12:47:44;;;;;;;7.57;2.20;;;18.30;49.40;;;;;;5072944;28;20048;-34
2024/01/23 12:50:19;;;;;;;6.22;2.80;;;18.70;43.00;;;;;;5072855;28;20566;-33
2024/01/23 12:52:47;;;;;;;7.25;2.65;;;18.80;63.70;;;;;;5072383;28;20452;-37
2024/01/23 12:55:14;;;;;;;7.13;2.70;;;18.80;43.10;;;;;;5072692;28;20103;-34
2024/01/23 12:57:42;;;;;;;8.00;2.97;;;18.50;63.40;;;;;;5072543;28;20052;-38
2024/01/23 13:00:10;;;;;;;6.85;2.60;;;18.80;43.10;;;;;;5072632;28;20481;-32
2024/01/23 13:02:37;;;;;;;6.63;2.60;;;18.10;62.80;;;;;;5072172;28;20067;-28
2024/01/23 13:05:04;;;;;;;8.30;2.95;;;;;;;;;;5072642;28;20501;-33
2024/01/23 13:07:31;;;;;;;8.25;2.80;;;17.90;62.80;;;;;;5072314;28;20060;-35
2024/01/23 13:09:58;;;;;;;9.05;2.47;;;18.90;63.40;;;;;;5071670;28;20106;-34
2024/01/23 13:12:25;;;;;;;7.60;2.38;;;;;;;;;;5072039;28;20048;-28